Currently 61°F in Riverside (Presidential Park), California, USA
61°F
61°F / 50°F
calm
0.00"
Sunday, February 25, 2024 10:11 AM PST

Riverside (Presidential Park), California Weather Summary
Last 36 Hours

Temperature Winds Hourly Humidity Dewpoint
Time Report Norm Report Norm Max Gusts Precip. Rpt. Norm Rpt. Norm Pressure
1Sun 10:11 AM  61.1°F  61°F  calm  3 mph  none  0.00"  63%  49%  48°F  41°F  N/A
2Sun 10:10 AM  61.1°F  61°F  calm  3 mph  none  ----  63%  50%  48°F  41°F  N/A
Sun 10:00 AM  60.3°F  60°F  calm  3 mph  3 mph  0.00"  62%  51%  47°F  41°F  N/A
Sun 09:00 AM  56.4°F  56°F  1 mph SW  3 mph  5 mph  0.00"  73%  59%  48°F  42°F  N/A
Sun 08:00 AM  53.0°F  50°F  1 mph NE  2 mph  4 mph  0.00"  78%  69%  46°F  40°F  N/A
Sun 07:00 AM  50.9°F  47°F  calm  2 mph  2 mph  0.00"  78%  72%  44°F  38°F  N/A
3Sun 06:19 AM  50.4°F  47°F  calm  1 mph  2 mph  ----  78%  72%  43°F  38°F  N/A
Sun 06:00 AM  50.8°F  47°F  1 mph E  1 mph  2 mph  0.00"  78%  72%  44°F  38°F  N/A
Sun 05:00 AM  51.9°F  47°F  calm  2 mph  3 mph  0.00"  77%  72%  45°F  38°F  N/A
Sun 04:00 AM  52.6°F  48°F  2 mph E  1 mph  4 mph  0.00"  75%  71%  45°F  39°F  N/A
Sun 03:00 AM  52.9°F  48°F  calm  1 mph  4 mph  0.00"  74%  70%  44°F  39°F  N/A
Sun 02:00 AM  53.4°F  49°F  1 mph E  1 mph  2 mph  0.00"  73%  69%  44°F  39°F  N/A
Sun 01:00 AM  54.3°F  50°F  calm  2 mph  4 mph  0.00"  71%  68%  45°F  39°F  N/A
Sun 12:00 AM  55.9°F  51°F  calm  2 mph  4 mph  0.00"  67%  67%  45°F  40°F  N/A
Sat 11:00 PM  56.4°F  52°F  3 mph SE  2 mph  4 mph  0.00"  67%  65%  45°F  40°F  N/A
Sat 10:00 PM  57.7°F  53°F  2 mph SE  2 mph  4 mph  0.00"  64%  63%  45°F  41°F  N/A
Sat 09:00 PM  59.4°F  55°F  1 mph E  2 mph  3 mph  0.00"  59%  60%  45°F  41°F  N/A
Sat 08:00 PM  62.5°F  57°F  1 mph NE  2 mph  4 mph  0.00"  54%  56%  45°F  41°F  N/A
Sat 07:00 PM  65.6°F  59°F  2 mph SW  3 mph  6 mph  0.00"  45%  51%  43°F  40°F  N/A
Sat 06:00 PM  69.7°F  62°F  5 mph W  4 mph  7 mph  0.00"  37%  46%  42°F  40°F  N/A
Sat 05:00 PM  73.2°F  65°F  5 mph SW  6 mph  9 mph  0.00"  33%  41%  41°F  40°F  N/A
Sat 04:00 PM  73.7°F  67°F  4 mph SW  6 mph  13 mph  0.00"  32%  39%  41°F  40°F  N/A
Sat 03:00 PM  73.8°F  66°F  6 mph SW  6 mph  10 mph  0.00"  32%  38%  41°F  39°F  N/A
Sat 02:00 PM  75.3°F  66°F  3 mph SE  5 mph  8 mph  0.00"  22%  39%  33°F  39°F  N/A
Sat 01:00 PM  77.3°F  66°F  7 mph E  5 mph  8 mph  0.00"  21%  38%  33°F  39°F  N/A
Sat 12:00 PM  74.0°F  65°F  3 mph E  4 mph  7 mph  0.00"  27%  40%  36°F  39°F  N/A
Sat 11:00 AM  72.9°F  63°F  5 mph E  4 mph  9 mph  0.00"  28%  45%  37°F  40°F  N/A
Sat 10:00 AM  69.0°F  60°F  2 mph E  3 mph  6 mph  0.00"  37%  51%  40°F  41°F  N/A
Sat 09:00 AM  65.4°F  56°F  1 mph E  3 mph  8 mph  0.00"  43%  60%  42°F  41°F  N/A
Sat 08:00 AM  58.6°F  50°F  3 mph SE  2 mph  6 mph  0.00"  55%  69%  42°F  40°F  N/A
Sat 07:00 AM  56.0°F  47°F  calm  2 mph  4 mph  0.00"  57%  73%  40°F  38°F  N/A
Sat 06:00 AM  56.0°F  47°F  2 mph SE  1 mph  4 mph  0.00"  58%  73%  41°F  38°F  N/A
Sat 05:00 AM  54.8°F  47°F  1 mph NE  2 mph  4 mph  0.00"  62%  72%  41°F  38°F  N/A
Sat 04:00 AM  54.9°F  48°F  calm  1 mph  4 mph  0.00"  61%  72%  41°F  39°F  N/A
Sat 03:00 AM  55.0°F  48°F  calm  1 mph  4 mph  0.00"  59%  71%  41°F  39°F  N/A
Sat 02:00 AM  56.0°F  49°F  calm  1 mph  3 mph  0.00"  56%  70%  40°F  39°F  N/A
Sat 01:00 AM  57.0°F  50°F  calm  2 mph  4 mph  0.00"  52%  69%  39°F  40°F  N/A
Sat 12:00 AM  58.4°F  51°F  calm  2 mph  6 mph  0.00"  49%  68%  38°F  40°F  N/A
Fri 11:00 PM  59.5°F  52°F  4 mph E  2 mph  5 mph  0.00"  46%  66%  38°F  40°F  N/A

  1. Current weather data. No green row appears if the current weather data is also the high or low for the current day.
  2. High temperature for the current day.
  3. Low temperature for the current day.

The Riverside (Presidential Park), California weather pages are a service of WeatherCurrents.
Copyright ©2024  WeatherCurrents. All rights reserved. - Submit questions and comments - Privacy Policy

This page automatically refreshes every 10 minutes.